Flagstaff, AZ

5:45 AM MST on August 29, 2015 (GMT -0700)
Elk Run | | Change Station
CLOSE
Current Station
Personal Weather Station
Location: Flagstaff, AZ
Elevation: 6831 ft
Nearby Weather Stations

Elev 6831 ft 35.20 °N, 111.60 °W | Updated 15 seconds ago

Clear
Clear
49.5 °F
Feels Like 50 °F
N
0.0
Wind Variable Wind from NE
Gusts 0.0 mph

Today
High -- | Low -- °F
--% Chance of Precip.
Yesterday
High -- | Low -- °F
Precip. -- in
5:56 AM 6:57 PM
Full, 100% visible
Pressure 30.06 in
Visibility 10.0 miles
Clouds Clear
Windchill 50 °F
Dew Point 49 °F
Humidity 98%
Rainfall 0.00 in
Snow Depth Not available.
UV 0.0 out of 12
Pollen 5.30 out of 12
Air Quality Not available.
Flu Activity Not available.
METAR KFLG 291157Z AUTO 00000KT 10SM CLR 09/07 A3033 RMK AO2 SLP178 T00890072 10122 20083 53001 TSNO
Pressure 30.06 in
Visibility 10.0 miles
Clouds Clear
Windchill 50 °F
Dew Point 49 °F
Humidity 98%
Rainfall 0.00 in
Snow Depth Not available.
UV 0.0 out of 12
Pollen 5.30 out of 12
Air Quality Not available.
Flu Activity Not available.
METAR KFLG 291157Z AUTO 00000KT 10SM CLR 09/07 A3033 RMK AO2 SLP178 T00890072 10122 20083 53001 TSNO

10-Day Weather Forecast

×

Almanac

Astronomy

Aug. 29, 2015 Rise Set
Actual Time
Civil Twilight
Nautical Twilight
Astronomical Twilight
Moon
Length of Visible Light
Length of Day
Tomorrow will be .
, % of the Moon is Illuminated

Today's Extremes

State Highs State Lows

Community

WunderPhotos

Upload Photos

1,850,677 photos uploaded!

WunderBlogs® & News

Nearby

Air Quality

  Air Quality AQ Index Pollutant
Not available.

Snow Depth

Station Depth Elevation

Earthquake Activity

City Distance Mag. Time & Date
Minimum magnitude displayed is 2.5.

Coastal Water Temperatures

Place Temperature

Stations

Nearby Weather Stations

Station Location Temp. Windchill Dew Point Humidity Wind Precip. Elev Updated Type